Time;durP1;ratioP1;P1;durP2;ratioP2;P2;SDS_P1;SDS_P2;PMS_P1;PMS_P2;Temp;Humidity;BMP_temperature;BMP_pressure;BME280_temperature;BME280_humidity;BME280_pressure;Samples;Min_cycle;Max_cycle;Signal;HPM_P1;HPM_P2
2021/07/06 00:00:48;;;;;;;2.97;1.55;;;16.50;92.10;;;;;;5093733;28;20500;-66
2021/07/06 00:03:14;;;;;;;3.13;1.58;;;16.40;92.00;;;;;;5093453;28;20055;-66
2021/07/06 00:05:39;;;;;;;5.60;1.50;;;16.40;92.10;;;;;;5088387;28;20111;-66
2021/07/06 00:08:05;;;;;;;2.13;1.55;;;16.30;92.10;;;;;;5089203;28;20020;-66
2021/07/06 00:10:31;;;;;;;1.92;1.50;;;16.30;92.20;;;;;;5093232;28;20089;-67
2021/07/06 00:12:56;;;;;;;3.20;1.80;;;16.30;92.20;;;;;;5093583;28;20020;-66
2021/07/06 00:15:23;;;;;;;2.58;1.40;;;16.30;92.20;;;;;;5074080;28;20107;-67
2021/07/06 00:17:51;;;;;;;4.25;1.38;;;16.30;92.30;;;;;;5075005;28;20027;-66
2021/07/06 00:20:17;;;;;;;1.25;1.20;;;16.30;92.30;;;;;;5092851;28;20035;-67
2021/07/06 00:22:43;;;;;;;5.75;1.73;;;16.20;92.20;;;;;;5093506;28;20047;-66
2021/07/06 00:25:09;;;;;;;2.63;1.50;;;16.20;92.30;;;;;;5091960;28;20020;-66
2021/07/06 00:27:36;;;;;;;1.42;1.30;;;16.20;92.30;;;;;;5074448;28;20077;-66
2021/07/06 00:30:02;;;;;;;2.53;1.38;;;16.20;92.40;;;;;;5092326;28;20074;-66
2021/07/06 00:32:28;;;;;;;1.27;1.17;;;16.20;92.40;;;;;;5092097;28;20046;-66
2021/07/06 00:34:53;;;;;;;2.03;1.50;;;16.20;92.40;;;;;;5091721;28;20032;-67
2021/07/06 00:37:19;;;;;;;2.53;1.80;;;16.20;92.40;;;;;;5077987;28;20036;-66
2021/07/06 00:39:44;;;;;;;4.55;1.50;;;16.20;92.40;;;;;;5090582;28;20071;-67
2021/07/06 00:42:10;;;;;;;4.03;1.50;;;16.20;92.40;;;;;;5093075;28;20024;-65
2021/07/06 00:44:36;;;;;;;2.25;1.40;;;16.10;92.30;;;;;;5073340;28;20500;-66
2021/07/06 00:47:03;;;;;;;3.88;1.20;;;16.10;92.50;;;;;;5091465;28;20385;-68
2021/07/06 00:49:29;;;;;;;6.15;1.70;;;16.10;92.30;;;;;;5074193;28;20111;-66
2021/07/06 00:51:54;;;;;;;2.97;1.33;;;16.00;92.40;;;;;;5092813;28;20087;-65
2021/07/06 00:54:20;;;;;;;2.63;1.52;;;16.00;92.40;;;;;;5092520;28;20387;-65
2021/07/06 00:56:46;;;;;;;3.38;1.58;;;16.10;92.40;;;;;;5091783;28;20056;-66
2021/07/06 00:59:15;;;;;;;5.18;2.20;;;16.00;92.40;;;;;;5074073;28;20036;-67
2021/07/06 01:01:41;;;;;;;2.08;1.58;;;16.00;92.50;;;;;;5092626;28;20107;-66
2021/07/06 01:04:07;;;;;;;4.15;1.52;;;16.00;92.40;;;;;;5092421;28;20111;-66
2021/07/06 01:06:33;;;;;;;3.20;1.75;;;16.00;92.40;;;;;;5064528;28;20032;-66
2021/07/06 01:08:59;;;;;;;4.15;1.88;;;16.00;92.40;;;;;;5068900;28;20032;-65
2021/07/06 01:11:25;;;;;;;1.65;1.50;;;16.00;92.50;;;;;;5073889;28;20036;-67
2021/07/06 01:13:51;;;;;;;6.10;1.90;;;15.90;92.40;;;;;;5092390;28;20149;-65
2021/07/06 01:16:17;;;;;;;3.80;1.60;;;15.90;92.50;;;;;;5091182;28;20107;-66
2021/07/06 01:18:43;;;;;;;4.30;1.70;;;15.90;92.70;;;;;;5091891;28;20053;-65
2021/07/06 01:21:09;;;;;;;4.20;1.42;;;15.90;92.50;;;;;;5092070;28;20024;-67
2021/07/06 01:23:34;;;;;;;2.90;1.35;;;15.90;92.50;;;;;;5092072;28;20714;-67
2021/07/06 01:26:05;;;;;;;1.60;1.50;;;15.90;92.50;;;;;;5072750;28;20020;-67
2021/07/06 01:28:32;;;;;;;2.90;1.73;;;15.90;92.60;;;;;;5092016;28;20048;-66
2021/07/06 01:30:58;;;;;;;9.68;1.88;;;15.80;92.50;;;;;;5090410;28;20031;-66
2021/07/06 01:33:31;;;;;;;2.97;1.45;;;15.80;92.50;;;;;;5092033;28;20085;-66
2021/07/06 01:36:07;;;;;;;3.38;1.50;;;15.80;92.60;;;;;;5085009;28;20028;-67
2021/07/06 01:38:35;;;;;;;5.13;1.40;;;15.80;92.50;;;;;;5071778;28;20095;-66
2021/07/06 01:41:01;;;;;;;6.85;1.77;;;15.80;92.50;;;;;;5090263;28;20476;-66
2021/07/06 01:43:26;;;;;;;1.85;1.50;;;15.80;92.60;;;;;;5091713;28;20035;-67
2021/07/06 01:45:52;;;;;;;3.65;1.63;;;15.70;92.60;;;;;;5088632;28;20036;-66
2021/07/06 01:48:18;;;;;;;2.08;1.38;;;15.70;92.70;;;;;;5073046;28;20028;-68
2021/07/06 01:50:44;;;;;;;5.65;1.85;;;15.70;92.70;;;;;;5091692;28;20054;-67
2021/07/06 01:53:13;;;;;;;1.65;1.50;;;15.70;92.70;;;;;;5091598;28;20032;-67
2021/07/06 01:55:43;;;;;;;2.75;1.55;;;15.70;92.70;;;;;;5090869;28;20051;-66
2021/07/06 01:58:10;;;;;;;6.05;1.83;;;15.70;92.70;;;;;;5091274;28;20032;-67
2021/07/06 02:00:40;;;;;;;6.20;1.80;;;15.70;92.70;;;;;;5086300;28;20025;-66
2021/07/06 02:03:06;;;;;;;2.83;1.92;;;15.70;92.60;;;;;;5060082;28;20028;-67
2021/07/06 02:05:45;;;;;;;4.65;1.80;;;15.60;92.70;;;;;;5087718;28;20492;-66
2021/07/06 02:08:14;;;;;;;1.63;1.52;;;15.60;92.70;;;;;;5060026;28;20024;-66
2021/07/06 02:10:41;;;;;;;3.58;1.52;;;15.60;92.70;;;;;;5091053;28;20027;-67
2021/07/06 02:13:10;;;;;;;1.45;1.35;;;15.60;92.70;;;;;;5072763;28;20085;-66
2021/07/06 02:15:35;;;;;;;6.35;1.80;;;15.60;92.60;;;;;;5089662;28;20047;-67
2021/07/06 02:18:01;;;;;;;2.00;1.60;;;15.60;92.70;;;;;;5091054;28;20473;-67
2021/07/06 02:20:27;;;;;;;6.13;1.67;;;15.60;92.70;;;;;;5091248;28;20036;-66
2021/07/06 02:22:53;;;;;;;3.28;1.50;;;15.50;92.70;;;;;;5072822;28;20553;-66
2021/07/06 02:25:20;;;;;;;3.70;1.60;;;15.60;92.70;;;;;;5089954;28;20020;-66
2021/07/06 02:27:47;;;;;;;4.97;1.80;;;15.50;92.70;;;;;;5090941;28;20422;-66
2021/07/06 02:30:23;;;;;;;3.90;1.80;;;15.50;92.80;;;;;;5088597;28;20028;-66
2021/07/06 02:32:50;;;;;;;2.63;1.73;;;15.50;92.70;;;;;;5060428;28;20040;-67
2021/07/06 02:35:17;;;;;;;4.30;1.67;;;15.50;92.70;;;;;;5089039;28;20483;-67
2021/07/06 02:37:44;;;;;;;2.00;1.80;;;15.50;92.70;;;;;;5072317;28;20028;-66
2021/07/06 02:40:11;;;;;;;4.40;1.80;;;15.50;92.70;;;;;;5070564;28;20449;-66
2021/07/06 02:42:37;;;;;;;4.30;1.60;;;15.40;92.70;;;;;;5057235;28;20081;-67
2021/07/06 02:45:08;;;;;;;3.65;1.40;;;15.40;92.70;;;;;;5090164;28;20529;-66
2021/07/06 02:47:34;;;;;;;3.70;1.60;;;15.40;92.80;;;;;;5082885;28;20107;-66
2021/07/06 02:50:00;;;;;;;3.90;1.70;;;15.40;92.80;;;;;;5091052;28;20555;-66
2021/07/06 02:52:26;;;;;;;8.93;1.90;;;15.40;92.70;;;;;;5072405;28;20032;-66
2021/07/06 02:54:52;;;;;;;4.75;1.58;;;15.30;92.70;;;;;;5089705;28;20085;-66
2021/07/06 02:57:36;;;;;;;3.95;1.80;;;15.30;92.70;;;;;;5092110;28;20028;-66
2021/07/06 03:00:09;;;;;;;1.77;1.60;;;15.30;92.80;;;;;;5095305;28;20024;-66
2021/07/06 03:02:39;;;;;;;5.68;1.85;;;15.20;92.90;;;;;;5087810;28;20032;-67
2021/07/06 03:05:07;;;;;;;4.65;1.77;;;15.10;92.90;;;;;;5093936;28;20043;-67
2021/07/06 03:07:32;;;;;;;3.83;1.58;;;15.10;93.00;;;;;;5085237;28;20071;-66
2021/07/06 03:10:03;;;;;;;3.00;1.58;;;15.10;93.00;;;;;;5091607;22;20044;-68
2021/07/06 03:12:29;;;;;;;5.60;1.60;;;15.10;93.10;;;;;;5049955;28;20029;-69
2021/07/06 03:14:55;;;;;;;7.18;1.92;;;15.20;93.00;;;;;;5047154;28;20079;-68
2021/07/06 03:17:20;;;;;;;4.28;1.88;;;15.10;93.00;;;;;;5053097;28;20025;-68
2021/07/06 03:19:46;;;;;;;3.50;2.10;;;15.20;93.00;;;;;;5053746;28;20550;-68
2021/07/06 03:22:11;;;;;;;2.00;1.80;;;15.20;93.00;;;;;;5053812;28;20028;-68
2021/07/06 03:24:37;;;;;;;3.45;1.67;;;15.20;93.00;;;;;;5052588;28;20021;-68
2021/07/06 03:27:03;;;;;;;3.15;1.40;;;15.20;93.00;;;;;;5053766;28;20051;-68
2021/07/06 03:29:28;;;;;;;4.78;1.60;;;15.20;93.00;;;;;;5053544;28;20120;-68
2021/07/06 03:31:54;;;;;;;2.25;1.88;;;15.20;93.00;;;;;;5053690;28;20404;-68
2021/07/06 03:34:20;;;;;;;2.35;1.48;;;15.20;93.00;;;;;;5053384;28;20033;-68
2021/07/06 03:36:45;;;;;;;6.85;1.60;;;15.20;93.00;;;;;;5049679;28;20032;-68
2021/07/06 03:39:11;;;;;;;4.25;1.63;;;15.10;93.00;;;;;;5053070;28;20037;-68
2021/07/06 03:41:37;;;;;;;4.65;1.70;;;15.20;93.00;;;;;;5053038;28;20063;-68
2021/07/06 03:44:02;;;;;;;5.28;2.17;;;15.10;93.00;;;;;;5053576;28;20017;-68
2021/07/06 03:46:28;;;;;;;2.20;2.00;;;15.10;93.00;;;;;;5051877;28;20724;-68
2021/07/06 03:48:54;;;;;;;3.53;1.95;;;15.10;93.10;;;;;;5053447;28;20112;-68
2021/07/06 03:51:19;;;;;;;3.83;1.92;;;15.10;93.00;;;;;;5053104;28;20036;-67
2021/07/06 03:53:45;;;;;;;3.72;2.00;;;15.10;93.10;;;;;;5052161;28;20025;-68
2021/07/06 03:56:10;;;;;;;5.32;2.15;;;15.10;93.00;;;;;;5050864;28;20405;-68
2021/07/06 03:58:36;;;;;;;1.92;1.83;;;15.10;93.00;;;;;;5072945;28;20024;-68
2021/07/06 04:01:02;;;;;;;2.42;1.80;;;15.10;93.10;;;;;;5051696;28;20082;-68
2021/07/06 04:03:28;;;;;;;4.30;2.10;;;15.10;93.10;;;;;;5052024;28;20025;-68
2021/07/06 04:05:54;;;;;;;4.82;1.80;;;15.10;93.20;;;;;;5051958;28;20021;-68
2021/07/06 04:08:19;;;;;;;5.10;1.98;;;15.10;93.20;;;;;;5052087;28;20423;-68
2021/07/06 04:10:45;;;;;;;5.38;2.03;;;15.10;93.20;;;;;;5043127;28;20032;-68
2021/07/06 04:13:10;;;;;;;4.32;2.10;;;15.10;93.20;;;;;;5052389;28;20090;-69
2021/07/06 04:15:38;;;;;;;3.72;2.10;;;15.10;93.20;;;;;;5051035;28;20135;-67
2021/07/06 04:18:04;;;;;;;2.58;2.10;;;15.10;93.30;;;;;;5052090;28;20384;-68
2021/07/06 04:20:29;;;;;;;4.68;2.17;;;15.20;93.30;;;;;;5051337;28;20025;-67
2021/07/06 04:22:55;;;;;;;6.45;2.00;;;15.20;93.40;;;;;;5053263;28;20032;-68
2021/07/06 04:25:21;;;;;;;4.28;2.22;;;15.20;93.40;;;;;;5051840;28;20025;-68
2021/07/06 04:27:47;;;;;;;4.47;2.45;;;15.20;93.40;;;;;;5052792;28;20106;-68
2021/07/06 04:30:13;;;;;;;6.47;2.10;;;15.20;93.60;;;;;;5051306;28;20025;-68
2021/07/06 04:32:39;;;;;;;4.07;2.00;;;15.20;93.50;;;;;;5053769;28;20028;-70
2021/07/06 04:35:06;;;;;;;4.53;2.10;;;15.30;93.60;;;;;;5052694;28;20033;-68
2021/07/06 04:37:32;;;;;;;5.18;2.22;;;15.40;93.70;;;;;;5050507;28;20043;-69
2021/07/06 04:39:57;;;;;;;3.47;2.08;;;15.40;93.70;;;;;;5045943;28;20476;-69
2021/07/06 04:42:23;;;;;;;2.60;1.85;;;15.50;93.70;;;;;;5053008;28;20025;-69
2021/07/06 04:44:49;;;;;;;2.55;1.80;;;15.60;93.70;;;;;;5051506;28;20056;-69
2021/07/06 04:47:14;;;;;;;3.53;1.90;;;15.70;93.70;;;;;;5052301;28;20032;-69
2021/07/06 04:49:40;;;;;;;3.10;1.90;;;15.70;93.70;;;;;;5053390;28;20029;-68
2021/07/06 04:52:06;;;;;;;4.07;1.90;;;15.80;93.70;;;;;;5053291;28;20060;-68
2021/07/06 04:54:32;;;;;;;5.55;2.08;;;15.90;93.80;;;;;;5052158;28;20033;-69
2021/07/06 04:56:57;;;;;;;3.45;2.10;;;16.00;93.80;;;;;;5052515;28;20047;-68
2021/07/06 04:59:23;;;;;;;4.25;2.10;;;16.00;93.70;;;;;;5052556;28;20036;-69
2021/07/06 05:01:49;;;;;;;3.67;1.90;;;16.10;93.70;;;;;;5052481;28;20746;-69
2021/07/06 05:04:15;;;;;;;2.55;1.75;;;16.20;93.70;;;;;;5052167;28;20029;-68
2021/07/06 05:06:42;;;;;;;3.85;2.15;;;16.40;93.70;;;;;;5051780;28;20464;-68
2021/07/06 05:09:08;;;;;;;3.70;1.85;;;16.50;93.60;;;;;;5051194;28;20053;-71
2021/07/06 05:11:34;;;;;;;2.22;1.52;;;16.60;93.50;;;;;;5043667;28;20028;-69
2021/07/06 05:14:01;;;;;;;2.45;1.70;;;16.70;93.50;;;;;;5050875;28;20508;-69
2021/07/06 05:16:27;;;;;;;2.42;1.98;;;16.80;93.40;;;;;;5050666;28;20112;-70
2021/07/06 05:18:52;;;;;;;1.70;1.52;;;16.90;93.40;;;;;;5051631;28;20028;-69
2021/07/06 05:21:18;;;;;;;3.42;1.70;;;17.00;93.40;;;;;;5051105;28;20024;-69
2021/07/06 05:23:44;;;;;;;3.85;1.65;;;17.10;93.40;;;;;;5051571;28;20053;-69
2021/07/06 05:26:10;;;;;;;2.15;1.50;;;17.20;93.40;;;;;;5048365;28;20443;-69
2021/07/06 05:28:35;;;;;;;2.75;1.33;;;17.30;93.30;;;;;;5051009;28;20105;-68
2021/07/06 05:31:03;;;;;;;1.85;1.27;;;17.40;93.30;;;;;;5051794;28;20726;-69
2021/07/06 05:33:29;;;;;;;2.03;1.30;;;17.50;93.30;;;;;;5050044;28;20024;-69
2021/07/06 05:35:54;;;;;;;3.20;1.40;;;17.70;93.20;;;;;;5050573;28;20025;-69
2021/07/06 05:38:20;;;;;;;2.92;1.27;;;17.80;93.10;;;;;;5047834;28;20029;-69
2021/07/06 05:40:53;;;;;;;3.08;1.20;;;18.00;92.90;;;;;;5040624;28;20244;-69
2021/07/06 05:43:18;;;;;;;2.17;1.30;;;18.10;92.80;;;;;;5049148;28;20060;-69
2021/07/06 05:45:44;;;;;;;2.20;1.05;;;18.10;92.70;;;;;;5050392;28;20049;-69
2021/07/06 05:48:10;;;;;;;3.05;1.23;;;18.10;92.60;;;;;;5050612;28;20028;-69
2021/07/06 05:50:35;;;;;;;2.15;1.15;;;18.20;92.50;;;;;;5051250;28;20656;-69
2021/07/06 05:53:01;;;;;;;6.40;1.73;;;18.10;92.50;;;;;;5050354;28;20485;-69
2021/07/06 05:55:26;;;;;;;3.28;1.55;;;18.10;92.50;;;;;;5049777;28;20029;-69
2021/07/06 05:57:52;;;;;;;3.70;1.80;;;18.10;92.50;;;;;;5050341;28;20098;-69
2021/07/06 06:00:18;;;;;;;3.22;1.98;;;18.10;92.50;;;;;;5050885;28;20029;-69
2021/07/06 06:02:43;;;;;;;2.33;1.80;;;18.10;92.50;;;;;;5048955;28;20112;-70
2021/07/06 06:05:09;;;;;;;2.95;1.60;;;18.00;92.50;;;;;;5048932;28;20013;-69
2021/07/06 06:07:42;;;;;;;4.25;2.40;;;18.00;92.60;;;;;;5050410;28;20040;-69
2021/07/06 06:10:10;;;;;;;3.95;2.10;;;18.10;92.70;;;;;;5042594;28;20037;-69
2021/07/06 06:12:36;;;;;;;4.35;1.20;;;18.10;92.70;;;;;;5048267;28;20028;-69
2021/07/06 06:15:03;;;;;;;4.60;1.52;;;18.10;92.70;;;;;;5046596;28;20021;-70
2021/07/06 06:17:29;;;;;;;2.33;1.20;;;18.20;92.70;;;;;;5050039;28;20044;-69
2021/07/06 06:19:54;;;;;;;1.33;1.10;;;18.30;92.70;;;;;;5050237;28;20025;-69
2021/07/06 06:22:20;;;;;;;1.00;1.00;;;18.40;92.70;;;;;;5050196;28;20029;-68
2021/07/06 06:24:45;;;;;;;1.48;1.10;;;18.60;92.70;;;;;;5049408;28;20037;-68
2021/07/06 06:27:12;;;;;;;1.90;1.23;;;18.70;92.60;;;;;;5049763;28;20515;-67
2021/07/06 06:29:38;;;;;;;1.98;1.38;;;18.90;92.50;;;;;;5050544;28;20394;-68
2021/07/06 06:32:04;;;;;;;2.70;1.20;;;19.00;92.30;;;;;;5050100;28;20103;-68
2021/07/06 06:34:29;;;;;;;1.55;1.10;;;19.10;92.10;;;;;;5049068;28;20032;-66
2021/07/06 06:36:55;;;;;;;2.45;1.10;;;19.20;92.00;;;;;;5049614;28;20132;-67
2021/07/06 06:39:23;;;;;;;2.58;0.95;;;19.40;91.80;;;;;;5041832;28;20417;-68
2021/07/06 06:41:49;;;;;;;0.80;0.80;;;19.50;91.60;;;;;;5047852;28;20099;-68
2021/07/06 06:44:14;;;;;;;1.70;1.55;;;19.60;91.50;;;;;;5049469;28;20116;-68
2021/07/06 06:46:40;;;;;;;2.63;0.93;;;19.80;91.30;;;;;;5049351;28;20385;-68
2021/07/06 06:49:05;;;;;;;3.05;0.90;;;20.00;91.20;;;;;;5049911;28;20068;-67
2021/07/06 06:51:32;;;;;;;2.45;1.00;;;20.20;91.10;;;;;;5050332;28;20021;-69
2021/07/06 06:53:57;;;;;;;3.80;0.80;;;20.40;90.90;;;;;;5050055;28;20036;-69
2021/07/06 06:56:23;;;;;;;0.75;0.75;;;20.70;90.70;;;;;;5048841;28;20029;-69
2021/07/06 06:58:49;;;;;;;0.85;0.85;;;20.90;90.40;;;;;;5049233;28;20028;-69
2021/07/06 07:01:14;;;;;;;2.53;0.90;;;21.10;90.20;;;;;;5048496;28;20068;-69
2021/07/06 07:03:40;;;;;;;5.35;1.65;;;21.20;90.00;;;;;;5040901;28;20030;-68
2021/07/06 07:06:06;;;;;;;1.67;0.90;;;21.40;89.80;;;;;;5029290;28;20140;-68
2021/07/06 07:08:32;;;;;;;0.98;0.90;;;21.40;89.10;;;;;;5031486;28;20044;-68
2021/07/06 07:10:58;;;;;;;2.72;0.93;;;21.60;89.00;;;;;;5041594;28;20025;-70
2021/07/06 07:13:24;;;;;;;0.80;0.80;;;21.70;88.90;;;;;;5049338;28;20380;-70
2021/07/06 07:15:50;;;;;;;2.28;0.93;;;21.90;88.70;;;;;;5049894;28;20516;-70
2021/07/06 07:18:16;;;;;;;2.25;0.80;;;22.10;88.00;;;;;;5050680;28;20063;-70
2021/07/06 07:20:42;;;;;;;2.25;0.85;;;22.40;87.70;;;;;;5050425;28;20100;-70
2021/07/06 07:23:07;;;;;;;2.58;0.90;;;22.60;87.10;;;;;;5049807;28;20026;-70
2021/07/06 07:25:33;;;;;;;1.17;0.75;;;22.80;86.60;;;;;;5048697;28;20032;-70
2021/07/06 07:27:59;;;;;;;0.68;0.68;;;22.90;86.20;;;;;;5049665;28;20034;-70
2021/07/06 07:30:25;;;;;;;0.82;0.70;;;23.00;85.90;;;;;;5049894;28;20097;-69
2021/07/06 07:32:50;;;;;;;1.10;0.77;;;23.00;85.40;;;;;;5049842;28;20056;-70
2021/07/06 07:35:17;;;;;;;1.98;0.93;;;23.20;85.10;;;;;;5048469;28;20098;-70
2021/07/06 07:37:43;;;;;;;1.00;0.60;;;23.30;85.10;;;;;;5049577;28;20032;-70
2021/07/06 07:40:12;;;;;;;1.05;0.75;;;23.50;84.80;;;;;;5049287;28;20024;-70
2021/07/06 07:42:37;;;;;;;6.28;0.80;;;23.60;84.00;;;;;;5041512;28;20389;-70
2021/07/06 07:45:03;;;;;;;4.50;0.90;;;23.70;83.70;;;;;;5052397;28;20025;-70
2021/07/06 07:47:29;;;;;;;0.55;0.55;;;23.90;83.40;;;;;;5052694;28;20036;-69
2021/07/06 07:49:55;;;;;;;1.65;0.63;;;24.00;83.40;;;;;;5051979;28;20024;-69
2021/07/06 07:52:20;;;;;;;8.77;0.70;;;24.20;82.50;;;;;;5053073;28;20039;-70
2021/07/06 07:54:46;;;;;;;1.33;0.50;;;24.40;81.90;;;;;;5052247;28;20354;-70
2021/07/06 07:57:23;;;;;;;2.97;0.70;;;24.60;81.30;;;;;;5052820;28;20029;-70
2021/07/06 07:59:49;;;;;;;0.85;0.60;;;24.80;80.80;;;;;;5053362;28;20025;-70
2021/07/06 08:02:14;;;;;;;1.38;0.68;;;25.30;80.00;;;;;;5052801;28;20104;-70
2021/07/06 08:04:40;;;;;;;6.75;0.75;;;25.60;78.90;;;;;;5051982;28;20537;-70
2021/07/06 08:07:05;;;;;;;0.65;0.50;;;25.90;78.20;;;;;;5052639;28;20432;-70
2021/07/06 08:09:31;;;;;;;1.75;0.80;;;26.20;77.10;;;;;;5049228;28;20392;-70
2021/07/06 08:11:57;;;;;;;1.85;0.30;;;26.60;75.30;;;;;;5052513;28;20037;-70
2021/07/06 08:14:22;;;;;;;0.95;0.60;;;26.90;74.10;;;;;;5052382;28;20481;-70
2021/07/06 08:16:51;;;;;;;2.03;0.60;;;27.10;72.80;;;;;;5051482;28;20464;-70
2021/07/06 08:19:17;;;;;;;2.35;0.50;;;27.30;72.20;;;;;;5052388;28;20396;-70
2021/07/06 08:21:42;;;;;;;1.25;0.45;;;27.40;71.50;;;;;;5052821;28;20025;-70
2021/07/06 08:24:08;;;;;;;2.00;0.50;;;27.70;71.30;;;;;;5052585;28;20311;-70
2021/07/06 08:26:36;;;;;;;0.73;0.50;;;27.90;71.00;;;;;;5050317;28;20432;-70
2021/07/06 08:29:02;;;;;;;1.20;0.50;;;28.20;70.50;;;;;;5051321;28;20036;-70
2021/07/06 08:31:27;;;;;;;2.28;0.40;;;28.10;69.20;;;;;;5052663;28;20397;-70
2021/07/06 08:33:53;;;;;;;1.80;0.60;;;28.30;68.60;;;;;;5052642;28;20081;-70
2021/07/06 08:36:19;;;;;;;0.60;0.60;;;28.40;67.80;;;;;;5051766;28;20097;-70
2021/07/06 08:38:44;;;;;;;1.10;0.50;;;28.50;67.10;;;;;;5052194;28;20025;-70
2021/07/06 08:41:11;;;;;;;3.28;0.40;;;28.60;66.60;;;;;;5052206;28;20024;-71
2021/07/06 08:43:37;;;;;;;3.22;0.57;;;28.70;65.40;;;;;;5052424;28;20025;-70
2021/07/06 08:46:03;;;;;;;0.63;0.50;;;28.90;64.90;;;;;;5050144;28;20036;-70
2021/07/06 08:48:32;;;;;;;0.98;0.70;;;28.70;65.10;;;;;;5051262;28;20353;-70
2021/07/06 08:50:59;;;;;;;1.00;0.50;;;29.00;64.30;;;;;;5051699;28;20487;-70
2021/07/06 08:53:25;;;;;;;0.57;0.57;;;29.30;63.50;;;;;;5052063;28;20044;-69
2021/07/06 08:55:51;;;;;;;1.10;0.70;;;29.90;61.80;;;;;;5049721;28;20029;-70
2021/07/06 08:58:17;;;;;;;0.43;0.43;;;30.30;61.20;;;;;;5051613;28;20044;-71
2021/07/06 09:00:43;;;;;;;0.80;0.60;;;31.00;59.60;;;;;;5051711;28;20048;-69
2021/07/06 09:03:09;;;;;;;0.40;0.40;;;30.70;58.40;;;;;;5050824;28;20021;-73
2021/07/06 09:05:36;;;;;;;2.97;0.50;;;30.10;59.50;;;;;;5049299;28;20033;-69
2021/07/06 09:08:03;;;;;;;0.47;0.43;;;29.90;59.40;;;;;;5051137;28;20351;-69
2021/07/06 09:10:40;;;;;;;0.40;0.40;;;29.20;61.10;;;;;;5128720;22;20044;-67
2021/07/06 09:13:30;;;;;;;1.33;0.45;;;28.60;62.30;;;;;;5095026;28;20091;-68
2021/07/06 09:15:57;;;;;;;1.65;0.45;;;28.20;63.70;;;;;;5066136;28;20459;-67
2021/07/06 09:18:32;;;;;;;1.77;0.65;;;27.90;64.50;;;;;;5073648;28;20028;-67
2021/07/06 09:21:03;;;;;;;1.90;0.40;;;27.70;64.30;;;;;;5091639;28;20024;-67
2021/07/06 09:23:30;;;;;;;1.65;0.40;;;27.40;65.20;;;;;;5091895;28;20021;-67
2021/07/06 09:26:24;;;;;;;0.52;0.52;;;27.20;65.70;;;;;;5091014;28;20360;-67
2021/07/06 09:29:00;;;;;;;0.68;0.47;;;27.00;65.90;;;;;;5091660;28;20016;-67
2021/07/06 09:31:36;;;;;;;0.80;0.47;;;26.90;66.10;;;;;;5071549;28;20032;-67
2021/07/06 09:34:06;;;;;;;5.05;0.60;;;26.80;66.70;;;;;;5091501;28;20070;-67
2021/07/06 09:36:41;;;;;;;0.45;0.45;;;26.90;67.00;;;;;;5090781;28;20016;-67
2021/07/06 09:39:17;;;;;;;2.33;0.52;;;26.80;67.10;;;;;;5091590;28;20098;-67
2021/07/06 09:41:59;;;;;;;2.00;1.30;;;26.70;67.40;;;;;;5091254;28;20073;-67
2021/07/06 09:44:31;;;;;;;2.90;0.50;;;26.60;67.60;;;;;;5091513;28;20057;-68
2021/07/06 09:46:58;;;;;;;1.48;0.50;;;26.50;67.50;;;;;;5090768;28;20032;-68
2021/07/06 09:49:27;;;;;;;0.82;0.60;;;26.30;67.20;;;;;;5091413;28;20114;-68
2021/07/06 09:51:53;;;;;;;1.58;0.60;;;26.10;67.20;;;;;;5085268;28;20035;-68
2021/07/06 09:54:34;;;;;;;2.35;0.70;;;25.90;67.50;;;;;;5090103;28;20028;-67
2021/07/06 09:57:05;;;;;;;2.75;0.80;;;25.70;67.40;;;;;;5086187;28;20077;-68
2021/07/06 09:59:30;;;;;;;3.22;1.00;;;25.50;67.80;;;;;;5087825;28;20020;-67
2021/07/06 10:01:59;;;;;;;2.35;0.80;;;25.30;68.20;;;;;;5105582;28;20034;-67
2021/07/06 10:04:26;;;;;;;0.90;0.90;;;25.10;68.20;;;;;;5105311;28;20016;-68
2021/07/06 10:06:57;;;;;;;1.42;1.10;;;24.80;68.50;;;;;;5090516;28;20072;-68
2021/07/06 10:09:25;;;;;;;3.80;1.02;;;24.50;69.20;;;;;;5087251;28;20016;-68
2021/07/06 10:11:52;;;;;;;4.10;0.80;;;24.30;69.90;;;;;;5090712;28;20036;-68
2021/07/06 10:14:19;;;;;;;1.52;0.60;;;24.20;70.00;;;;;;5084527;28;20484;-69
2021/07/06 10:16:45;;;;;;;4.57;0.52;;;24.60;69.70;;;;;;5087176;28;20040;-69
2021/07/06 10:19:11;;;;;;;1.73;0.68;;;24.90;70.40;;;;;;5082025;28;20032;-70
2021/07/06 10:21:37;;;;;;;0.73;0.38;;;25.10;70.10;;;;;;5072279;28;20545;-70
2021/07/06 10:24:04;;;;;;;1.65;0.30;;;25.40;69.80;;;;;;5087293;28;20032;-71
2021/07/06 10:26:31;;;;;;;2.95;0.40;;;25.60;69.70;;;;;;5072177;28;20384;-70
2021/07/06 10:28:57;;;;;;;0.25;0.25;;;25.70;69.10;;;;;;5090427;28;20039;-70
2021/07/06 10:31:24;;;;;;;0.47;0.32;;;25.80;68.10;;;;;;5064545;28;20021;-71
2021/07/06 10:33:51;;;;;;;0.20;0.20;;;26.00;68.60;;;;;;5089090;28;20024;-70
2021/07/06 10:36:17;;;;;;;0.30;0.30;;;26.10;68.60;;;;;;5080399;28;20020;-71
2021/07/06 10:38:45;;;;;;;1.73;0.30;;;26.20;68.10;;;;;;5090228;28;20043;-71
2021/07/06 10:41:18;;;;;;;0.28;0.28;;;26.30;68.00;;;;;;5090016;28;20028;-71
2021/07/06 10:43:43;;;;;;;2.15;0.28;;;26.30;66.80;;;;;;5090430;28;20028;-70
2021/07/06 10:46:29;;;;;;;1.00;0.47;;;26.30;66.80;;;;;;5089943;28;20567;-70
2021/07/06 10:49:03;;;;;;;0.30;0.30;;;26.20;67.20;;;;;;5089007;28;20040;-70
2021/07/06 10:51:38;;;;;;;0.30;0.30;;;26.40;67.60;;;;;;5090313;28;20495;-70
2021/07/06 10:54:08;;;;;;;1.55;0.10;;;26.50;67.30;;;;;;5070294;28;20465;-70
2021/07/06 10:56:35;;;;;;;5.57;0.55;;;26.60;66.80;;;;;;5069983;28;20028;-70
2021/07/06 10:59:03;;;;;;;0.35;0.30;;;26.70;66.60;;;;;;5069839;28;20027;-70
2021/07/06 11:01:37;;;;;;;0.70;0.28;;;26.80;66.30;;;;;;5090249;28;20126;-70
2021/07/06 11:04:11;;;;;;;0.30;0.20;;;26.90;66.20;;;;;;5089689;28;20447;-71
2021/07/06 11:06:46;;;;;;;4.45;4.05;;;26.90;66.20;;;;;;5071578;28;20016;-70
2021/07/06 11:09:12;;;;;;;1.90;0.25;;;26.90;66.20;;;;;;5085973;28;20023;-70
2021/07/06 11:11:38;;;;;;;6.25;1.35;;;27.10;66.10;;;;;;5081625;28;20055;-70
2021/07/06 11:14:26;;;;;;;0.10;0.10;;;27.20;65.50;;;;;;5089913;28;20046;-70
2021/07/06 11:16:56;;;;;;;1.75;0.30;;;27.10;65.00;;;;;;5089956;28;20023;-70
2021/07/06 11:19:38;;;;;;;0.40;0.20;;;27.10;64.90;;;;;;5093102;28;20567;-70
2021/07/06 11:22:11;;;;;;;;;;;27.00;64.30;;;;;;5094463;28;20032;-70
2021/07/06 11:24:40;;;;;;;0.45;0.22;;;26.80;65.40;;;;;;5093230;28;19912;-70
2021/07/06 11:27:06;;;;;;;1.90;0.50;;;26.70;65.90;;;;;;5093390;28;20020;-71
2021/07/06 11:29:40;;;;;;;0.30;0.30;;;26.70;66.00;;;;;;5092365;28;20028;-70
2021/07/06 11:32:17;;;;;;;0.38;0.38;;;26.80;65.70;;;;;;5092464;28;20040;-70
2021/07/06 11:34:45;;;;;;;1.38;0.30;;;26.70;65.20;;;;;;5074520;28;20031;-70
2021/07/06 11:37:14;;;;;;;0.22;0.22;;;26.80;65.20;;;;;;5094327;28;20024;-70
2021/07/06 11:39:40;;;;;;;0.40;0.30;;;26.80;64.70;;;;;;5093009;28;20069;-71
2021/07/06 11:42:08;;;;;;;0.22;0.22;;;26.80;64.60;;;;;;5093724;28;20031;-70
2021/07/06 11:44:34;;;;;;;0.20;0.20;;;26.90;64.90;;;;;;5074101;28;20046;-70
2021/07/06 11:47:10;;;;;;;0.43;0.43;;;27.00;64.50;;;;;;5093309;28;20028;-71
2021/07/06 11:49:36;;;;;;;0.40;0.40;;;27.00;63.90;;;;;;5089854;28;20030;-71
2021/07/06 11:52:02;;;;;;;0.77;0.43;;;27.10;64.50;;;;;;5091839;28;20102;-71
2021/07/06 11:54:27;;;;;;;0.30;0.30;;;27.10;65.30;;;;;;5080334;28;20097;-70
2021/07/06 11:57:10;;;;;;;2.83;0.82;;;27.20;64.60;;;;;;5092518;28;20024;-71
2021/07/06 11:59:36;;;;;;;1.33;0.38;;;27.10;63.30;;;;;;5090255;28;20465;-70
2021/07/06 12:02:12;;;;;;;1.60;0.40;;;26.90;63.30;;;;;;5075143;28;20039;-70
2021/07/06 12:04:38;;;;;;;0.22;0.22;;;26.70;62.80;;;;;;5092474;28;20023;-71
2021/07/06 12:07:13;;;;;;;0.35;0.30;;;26.50;63.30;;;;;;5087659;28;20024;-70
2021/07/06 12:09:39;;;;;;;0.65;0.65;;;26.50;63.10;;;;;;5093208;28;20111;-70
2021/07/06 12:12:14;;;;;;;0.85;0.40;;;26.40;63.20;;;;;;5075124;28;20031;-70
2021/07/06 12:14:45;;;;;;;0.40;0.40;;;26.30;63.20;;;;;;5074570;28;20028;-70
2021/07/06 12:17:25;;;;;;;1.95;0.60;;;26.20;63.60;;;;;;5093241;28;20036;-70
2021/07/06 12:19:50;;;;;;;2.38;0.40;;;26.10;63.60;;;;;;5093442;28;20091;-70
2021/07/06 12:22:20;;;;;;;0.30;0.30;;;26.00;63.50;;;;;;5074773;28;20039;-70
2021/07/06 12:24:47;;;;;;;0.35;0.30;;;25.70;62.80;;;;;;5092645;28;20039;-70
2021/07/06 12:27:15;;;;;;;0.50;0.32;;;25.50;63.80;;;;;;5077491;28;20029;-70
2021/07/06 12:29:41;;;;;;;0.20;0.20;;;25.30;63.70;;;;;;5088950;28;20020;-70
2021/07/06 12:32:14;;;;;;;0.30;0.30;;;25.10;63.80;;;;;;5074343;28;20488;-70
2021/07/06 12:34:46;;;;;;;0.20;0.20;;;25.00;64.10;;;;;;5074273;28;20057;-70
2021/07/06 12:37:15;;;;;;;2.20;0.20;;;24.90;64.00;;;;;;5092374;28;20039;-70
2021/07/06 12:39:45;;;;;;;0.43;0.20;;;24.80;64.60;;;;;;5092433;28;20213;-70
2021/07/06 12:42:22;;;;;;;0.30;0.30;;;24.80;64.80;;;;;;5088694;28;20553;-70
2021/07/06 12:44:57;;;;;;;0.70;0.30;;;24.70;64.80;;;;;;5092096;28;20021;-70
2021/07/06 12:47:26;;;;;;;1.90;1.52;;;24.60;65.20;;;;;;5092604;28;20020;-70
2021/07/06 12:50:11;;;;;;;0.30;0.30;;;24.60;65.60;;;;;;5092255;28;20032;-70